• Join FlightAware (Why Join?)
  • Login
  • US Flag 
04:09AM EST


 

Airport Tracker/Info


-or-


 

Live Flight TrackerFlight Track Log ✈ CTL16 ✈ 08-May-2013 ✈ KHAO - KBKL

Flight Track Log - Related Links

Times and Time Zones

All times are in EDT time to prevent confusion due to time zone crossing. See the CTL16 flight status page for this flight to view local times or setup timezone preferences in your user account.

Time Position Orientation Groundspeed Altitude Reporting Facility
EDT Latitude Longitude Course Direction KTS MPH feet Rate Location/Type
08:46PM 39.4000 -84.4500 47° Northeast 164 189 1,600  Level Cincinnati TRACON
08:47PM 39.4117 -84.4339 47° Northeast 161 185 1,800 480 Climbing Indianapolis Center
08:48PM 39.4342 -84.4036 46° Northeast 158 182 2,300 540 Climbing Indianapolis Center
08:48PM 39.4494 -84.3822 47° Northeast 165 190 2,500 600 Climbing Indianapolis Center
08:49PM 39.4800 -84.3403 47° Northeast 161 185 3,200 480 Climbing Indianapolis Center
08:50PM 39.4950 -84.3181 49° Northeast 160 184 3,300 360 Climbing Indianapolis Center
08:50PM 39.5106 -84.2983 44° Northeast 155 178 3,600 540 Climbing Indianapolis Center
08:51PM 39.5250 -84.2781 47° Northeast 157 181 3,900 360 Climbing Indianapolis Center
08:51PM 39.5389 -84.2589 47° Northeast 152 175 4,000 480 Climbing Indianapolis Center
08:52PM 39.5216 -84.2763 47° Northeast  Level FlightAware Approximate
08:52PM 39.5592 -84.2306 47° Northeast 154 177 4,400  Level Indianapolis Center
08:52PM 39.5694 -84.2169 46° Northeast 150 173 4,600 360 Climbing Indianapolis Center
08:53PM 39.5892 -84.1931 43° Northeast 151 174 4,800 360 Climbing Indianapolis Center
08:53PM 39.5997 -84.1803 43° Northeast 151 174 5,000 540 Climbing Indianapolis Center
08:54PM 39.6200 -84.1544 44° Northeast 152 175 5,400 540 Climbing Indianapolis Center
08:54PM 39.6300 -84.1408 46° Northeast 149 171 5,600 540 Climbing Indianapolis Center
08:55PM 39.6469 -84.1167 48° Northeast 147 169 6,000 480 Climbing Indianapolis Center
08:55PM 39.6539 -84.1033 56° Northeast 141 162 6,100 360 Climbing Indianapolis Center
08:56PM 39.6744 -84.0786 43° Northeast 144 166 6,400 360 Climbing Indianapolis Center
08:56PM 39.6800 -84.0661 60° Northeast 135 155 6,500 480 Climbing Indianapolis Center
08:57PM 39.7022 -84.0444 37° Northeast 141 162 6,900 540 Climbing Indianapolis Center
08:57PM 39.7119 -84.0297 49° Northeast 139 160 7,100 60 Climbing Indianapolis Center
08:58PM 39.7303 -84.0094 40° Northeast 139 160 7,000 -120 Descending Indianapolis Center
08:58PM 39.7419 -83.9956 42° Northeast 148 170 7,000  Level Indianapolis Center
08:59PM 39.7742 -83.9561 43° Northeast 155 178 7,000  Level Indianapolis Center
09:00PM 39.7936 -83.9306 45° Northeast 152 175 7,100 60 Climbing Indianapolis Center
09:00PM 39.8044 -83.9167 45° Northeast 158 182 7,100 -120 Level Indianapolis Center
09:01PM 39.8256 -83.8892 45° Northeast 156 180 7,000 -120 Descending Indianapolis Center
09:01PM 39.8347 -83.8769 46° Northeast 159 183 7,000  Level Indianapolis Center
09:02PM 39.8578 -83.8492 43° Northeast 158 182 7,000  Level Indianapolis Center
09:02PM 39.8694 -83.8353 42° Northeast 158 182 7,000  Level Indianapolis Center
09:03PM 39.8892 -83.8086 46° Northeast 158 182 7,000 60 Level Indianapolis Center
09:03PM 39.8997 -83.7956 43° Northeast 156 180 7,100 60 Climbing Indianapolis Center
09:04PM 39.9200 -83.7672 47° Northeast 157 181 7,100 -60 Level Indianapolis Center
09:05PM 39.9525 -83.7283 43° Northeast 157 181 7,000 -60 Descending Indianapolis Center
09:06PM 39.9844 -83.6889 43° Northeast 156 180 7,000  Level Indianapolis Center
09:07PM 40.0267 -83.6372 43° Northeast 159 183 7,100  Climbing Indianapolis Center
09:08PM 40.0486 -83.6094 44° Northeast 157 181 7,000  Descending Indianapolis Center
09:09PM 40.0856 -83.5622 44° Northeast 157 181 7,100  Climbing Indianapolis Center
09:10PM 40.1167 -83.5217 45° Northeast 157 181 7,100 -60 Level Indianapolis Center
09:11PM 40.1478 -83.4817 44° Northeast 156 180 7,000  Descending Indianapolis Center
09:12PM 40.1789 -83.4414 45° Northeast 156 180 7,100 -120 Climbing Indianapolis Center
09:13PM 40.1839 -83.4331 52° Northeast 153 176 6,900 -120 Descending Indianapolis Center
09:13PM 40.2108 -83.4006 43° Northeast 159 183 7,000  Climbing Indianapolis Center
09:14PM 40.2431 -83.3603 44° Northeast 158 182 7,000  Level Indianapolis Center
09:15PM 40.2747 -83.3186 45° Northeast 159 183 7,000  Level Indianapolis Center
09:16PM 40.3078 -83.2781 43° Northeast 161 185 7,000  Level Indianapolis Center
09:17PM 40.3406 -83.2361 44° Northeast 163 188 7,100  Climbing Indianapolis Center
09:18PM 40.3728 -83.1944 45° Northeast 162 186 7,000 -60 Descending Indianapolis Center
09:19PM 40.4047 -83.1536 44° Northeast 159 183 7,000 -60 Level Indianapolis Center
09:21PM 40.4319 -83.1050 54° Northeast 161 185 6,900 -60 Descending Indianapolis Center
09:22PM 40.4578 -83.0561 55° Northeast 162 186 6,900  Level Indianapolis Center
09:23PM 40.4897 -83.0017 52° Northeast 161 185 6,900  Level Indianapolis Center
09:24PM 40.5156 -82.9547 54° Northeast 163 188 6,900  Level Indianapolis Center
09:25PM 40.5414 -82.9058 55° Northeast 162 186 6,900  Level Indianapolis Center
09:26PM 40.5678 -82.8578 54° Northeast 162 186 6,900  Level Indianapolis Center
09:27PM 40.5939 -82.8097 54° Northeast 160 184 6,900  Level Indianapolis Center
09:28PM 40.6208 -82.7639 52° Northeast 158 182 6,900  Level Indianapolis Center
09:29PM 40.6467 -82.7147 55° Northeast 161 185 6,900  Level Indianapolis Center
09:29PM 40.6625 -82.6881 52° Northeast 161 185 7,000 60 Climbing Cleveland Center
09:30PM 40.6756 -82.6639 55° Northeast 160 184 7,000  Level Cleveland Center
09:31PM 40.7036 -82.6153 53° Northeast 158 182 7,000  Level Cleveland Center
09:32PM 40.7272 -82.5667 57° Northeast 160 184 7,000 -300 Level Cleveland Center
09:33PM 40.7575 -82.5183 50° Northeast 169 194 6,400 -720 Descending Cleveland Center
09:34PM 40.7833 -82.4669 56° Northeast 185 213 5,700 -720 Descending Cleveland Center
09:35PM 40.8133 -82.4186 51° Northeast 177 204 5,100 -360 Descending Cleveland Center
09:36PM 40.8414 -82.3589 58° Northeast 168 193 5,000 -60 Descending Cleveland Center
09:37PM 40.8669 -82.3156 52° Northeast 156 180 5,000  Level Cleveland Center
09:38PM 40.8928 -82.2669 55° Northeast 158 182 5,000  Level Cleveland Center
09:39PM 40.9164 -82.2208 56° Northeast 157 181 5,000 60 Level Cleveland Center
09:40PM 40.9442 -82.1747 51° Northeast 157 181 5,200  Climbing Cleveland Center
09:41PM 40.9697 -82.1258 55° Northeast 159 183 5,000 -120 Descending Cleveland Center
09:42PM 40.9975 -82.0769 53° Northeast 163 188 5,000 -180 Level Cleveland Center
09:43PM 41.0397 -82.0450 30° Northeast 167 192 4,700 -300 Descending Cleveland Center
09:44PM 41.0756 -82.0153 32° Northeast 164 189 4,400 -360 Descending Cleveland Center
09:45PM 41.1175 -81.9861 28° Northeast 165 190 4,000 -600 Descending Cleveland Center
09:46PM 41.1597 -81.9539 30° Northeast 176 203 3,200 -540 Descending Cleveland Center
09:47PM 41.2017 -81.9217 30° Northeast 172 198 3,000 -180 Descending Cleveland Center
09:48PM 41.2394 -81.8947 28° Northeast 151 174 2,900  Descending Cleveland Center
09:49PM 41.2711 -81.8567 42° Northeast 146 168 3,000  Climbing Cleveland Center
09:50PM 41.3008 -81.8186 44° Northeast 143 165 3,000 -60 Level Cleveland Center
09:51PM 41.3344 -81.7833 38° Northeast 152 175 2,900 -300 Descending Cleveland Center
09:52PM 41.3783 -81.7703 13° North 167 192 2,500 -600 Descending Cleveland Center
09:53PM 41.4225 -81.7517 18° North 164 189 1,800 -480 Descending Cleveland Center
09:54PM 41.4683 -81.7358 15° North 136 157 1,500 -360 Descending Cleveland Center
09:55PM 41.4997 -81.7225 18° North 107 123 1,100 -420 Descending Cleveland Center
09:57PM 41.5175 -81.6833 27° Northeast  Level Estimated
10:04PM 41.5175 -81.6833 27° Northeast  Level Estimated